Parkerton, Wyoming
Current Conditions -  °F | °C
As of 2:53 PM on Saturday 20 Dec 2014 (Local Time) from KCPR Reporting Station
Clear Clear  
Wind Chill: 25°   Ceiling: Unl
Heat Index: 35°   Visibility: 10mi
Dew Point: 27°   Wind: 16mph
Humidity: 72%   Direction: 220°SW
Pressure: 29.91"   Gusts: NA
Location:  43.0973°N, 105.88°W
Report Text: KCPR 202153Z 22014KT 10SM CLR 02/M03 A2991 RMK AO2 SLP140 T00171028
Loading
Personal Weather Stations






























Interactive Weather Map New forecast layout! Learn more

10-Day Weather Forecast

Advertisements
Track Severe Weather on mobile